createdAt,value
2019-05-12T00:01:03.402Z,94.10
2019-05-12T00:03:33.646Z,94.30
2019-05-12T00:06:03.955Z,95.00
2019-05-12T00:08:34.172Z,94.50
2019-05-12T00:11:04.654Z,94.90
2019-05-12T00:13:34.854Z,94.00
2019-05-12T00:16:05.126Z,94.10
2019-05-12T00:18:37.622Z,93.80
2019-05-12T00:21:08.790Z,95.20
2019-05-12T00:23:58.258Z,94.50
2019-05-12T00:26:28.748Z,94.40
2019-05-12T00:28:58.929Z,94.30
2019-05-12T00:31:29.215Z,94.20
2019-05-12T00:33:59.545Z,93.40
2019-05-12T00:36:29.814Z,93.70
2019-05-12T00:39:00.078Z,94.00
2019-05-12T00:41:30.432Z,93.50
2019-05-12T00:44:00.731Z,93.60
2019-05-12T00:46:30.981Z,93.50
2019-05-12T00:49:01.254Z,93.70
2019-05-12T00:51:31.551Z,93.90
2019-05-12T00:54:01.835Z,94.10
2019-05-12T00:56:32.159Z,94.50
2019-05-12T00:59:02.540Z,94.30
2019-05-12T01:01:32.826Z,94.00
2019-05-12T01:04:03.096Z,94.00
2019-05-12T01:06:33.396Z,93.90
2019-05-12T01:09:05.092Z,93.40
2019-05-12T01:11:37.772Z,94.80
2019-05-12T01:14:08.516Z,93.80
2019-05-12T01:16:39.176Z,93.90
2019-05-12T01:19:09.386Z,93.30
2019-05-12T01:21:39.762Z,93.80
2019-05-12T01:24:09.928Z,93.70
2019-05-12T01:26:40.147Z,94.10
2019-05-12T01:29:10.427Z,93.70
2019-05-12T01:31:48.591Z,93.10
2019-05-12T01:34:19.041Z,93.60
2019-05-12T01:36:49.332Z,93.60
2019-05-12T01:39:19.635Z,93.70
2019-05-12T01:41:49.874Z,93.10
2019-05-12T01:44:20.206Z,93.10
2019-05-12T01:46:50.451Z,93.40
2019-05-12T01:49:20.603Z,93.50
2019-05-12T01:51:50.873Z,93.70
2019-05-12T01:54:21.116Z,93.40
2019-05-12T01:56:51.327Z,92.80
2019-05-12T01:59:21.493Z,93.10
2019-05-12T02:01:51.859Z,92.80
2019-05-12T02:04:22.105Z,93.50
2019-05-12T02:06:52.427Z,93.40
2019-05-12T02:09:24.351Z,93.30
2019-05-12T02:11:54.522Z,93.00
2019-05-12T02:14:24.797Z,92.80
2019-05-12T02:16:55.117Z,93.20
2019-05-12T02:19:25.434Z,93.00
2019-05-12T02:21:57.790Z,92.30
2019-05-12T02:24:30.455Z,93.00
2019-05-12T02:26:59.825Z,93.10
2019-05-12T02:29:30.154Z,92.60
2019-05-12T02:32:00.520Z,92.60
2019-05-12T02:34:30.854Z,92.40
2019-05-12T02:37:04.971Z,92.50
2019-05-12T02:39:35.307Z,92.20
2019-05-12T02:42:05.324Z,92.50
2019-05-12T02:44:35.645Z,92.20
2019-05-12T02:47:05.865Z,92.20
2019-05-12T02:49:36.052Z,92.10
2019-05-12T02:52:06.398Z,92.20
2019-05-12T02:54:50.144Z,92.40
2019-05-12T02:57:09.344Z,92.10
2019-05-12T02:59:41.205Z,92.00
2019-05-12T03:02:14.210Z,92.20
2019-05-12T03:04:45.626Z,92.00
2019-05-12T03:07:18.030Z,91.80
2019-05-12T03:09:49.579Z,91.70
2019-05-12T03:12:19.797Z,91.50
2019-05-12T03:14:50.093Z,91.60
2019-05-12T03:17:20.422Z,91.50
2019-05-12T03:19:50.708Z,91.20
2019-05-12T03:22:20.914Z,91.20
2019-05-12T03:25:06.425Z,91.30
2019-05-12T03:27:25.662Z,91.10
2019-05-12T03:29:55.413Z,91.10
2019-05-12T03:32:27.748Z,91.00
2019-05-12T03:34:58.449Z,90.90
2019-05-12T03:37:31.266Z,90.90
2019-05-12T03:40:00.814Z,90.90
2019-05-12T03:42:31.165Z,90.50
2019-05-12T03:45:04.459Z,90.80
2019-05-12T03:47:35.546Z,90.70
2019-05-12T03:50:05.390Z,90.70
2019-05-12T03:52:35.623Z,90.70
2019-05-12T03:55:05.968Z,90.70
2019-05-12T03:57:36.485Z,90.70
2019-05-12T04:00:06.925Z,90.80
2019-05-12T04:02:37.104Z,90.80
2019-05-12T04:05:07.818Z,90.70
2019-05-12T04:07:38.700Z,90.90
2019-05-12T04:10:09.011Z,90.60
2019-05-12T04:12:39.624Z,90.60
2019-05-12T04:15:09.898Z,90.50
2019-05-12T04:17:40.731Z,90.50
2019-05-12T04:20:10.918Z,90.40
2019-05-12T04:22:44.697Z,90.40
2019-05-12T04:25:14.531Z,90.50
2019-05-12T04:27:45.317Z,90.40
2019-05-12T04:30:15.974Z,90.40
2019-05-12T04:32:46.279Z,90.40
2019-05-12T04:35:16.481Z,90.30
2019-05-12T04:37:46.880Z,90.40
2019-05-12T04:40:17.207Z,90.50
2019-05-12T04:42:47.504Z,90.50
2019-05-12T04:45:17.892Z,90.30
2019-05-12T04:47:48.165Z,90.20
2019-05-12T04:50:18.464Z,90.20
2019-05-12T04:52:48.781Z,90.10
2019-05-12T04:55:19.114Z,90.10
2019-05-12T04:57:49.358Z,90.00
2019-05-12T05:00:19.673Z,90.10
2019-05-12T05:02:50.194Z,90.10
2019-05-12T05:05:20.508Z,90.10
2019-05-12T05:07:51.203Z,90.30
2019-05-12T05:10:21.457Z,90.30
2019-05-12T05:12:54.122Z,90.40
2019-05-12T05:15:24.943Z,90.80
2019-05-12T05:17:55.337Z,91.30
2019-05-12T05:20:25.500Z,90.90
2019-05-12T05:22:55.778Z,91.20
2019-05-12T05:25:26.093Z,91.50
2019-05-12T05:27:56.281Z,91.50
2019-05-12T05:30:26.473Z,91.50
2019-05-12T05:32:56.832Z,91.80
2019-05-12T05:35:28.758Z,91.70
2019-05-12T05:37:59.068Z,91.90
2019-05-12T05:40:30.414Z,92.30
2019-05-12T05:43:05.733Z,91.90
2019-05-12T05:45:35.154Z,91.90
2019-05-12T05:48:09.832Z,92.00
2019-05-12T05:50:36.581Z,91.70
2019-05-12T05:53:09.236Z,91.80
2019-05-12T05:55:38.772Z,92.30
2019-05-12T05:58:10.631Z,92.20
2019-05-12T06:00:43.496Z,92.10
2019-05-12T06:03:22.787Z,92.00
2019-05-12T06:05:45.533Z,92.60
2019-05-12T06:08:20.648Z,91.80
2019-05-12T06:10:47.773Z,92.10
2019-05-12T06:13:21.223Z,92.60
2019-05-12T06:15:50.014Z,92.70
2019-05-12T06:18:20.395Z,92.60
2019-05-12T06:20:50.560Z,93.00
2019-05-12T06:23:20.896Z,93.40
2019-05-12T06:25:51.812Z,93.20
2019-05-12T06:28:23.485Z,94.20
2019-05-12T06:30:54.631Z,93.70
2019-05-12T06:33:31.942Z,93.70
2019-05-12T06:35:58.017Z,93.10
2019-05-12T06:38:31.061Z,93.50
2019-05-12T06:41:00.336Z,93.50
2019-05-12T06:43:35.211Z,93.60
2019-05-12T06:46:03.748Z,93.90
2019-05-12T06:48:34.188Z,93.20
2019-05-12T06:51:09.245Z,92.90
2019-05-12T06:53:36.546Z,93.50
2019-05-12T06:56:09.407Z,93.60
2019-05-12T06:58:38.798Z,93.60
2019-05-12T07:01:10.399Z,93.30
2019-05-12T07:03:41.034Z,93.10
2019-05-12T07:06:15.387Z,94.10
2019-05-12T07:08:43.819Z,94.60
2019-05-12T07:11:14.638Z,94.70
2019-05-12T07:13:45.101Z,93.10
2019-05-12T07:16:23.143Z,93.50
2019-05-12T07:18:49.094Z,93.20
2019-05-12T07:21:21.041Z,93.50
2019-05-12T07:23:53.361Z,93.20
2019-05-12T07:26:23.643Z,93.80
2019-05-12T07:28:54.211Z,93.40
2019-05-12T07:31:24.784Z,93.70
2019-05-12T07:33:55.042Z,93.50
2019-05-12T07:36:25.846Z,94.10
2019-05-12T07:39:03.878Z,94.00
2019-05-12T07:41:34.166Z,93.40
2019-05-12T07:44:04.253Z,93.60
2019-05-12T07:46:39.491Z,93.50
2019-05-12T07:49:06.431Z,93.40
2019-05-12T07:51:40.497Z,94.10
2019-05-12T07:54:08.710Z,93.70
2019-05-12T07:56:41.047Z,93.50
2019-05-12T07:59:13.552Z,93.60
2019-05-12T08:01:50.508Z,93.80
2019-05-12T08:04:16.027Z,93.50
2019-05-12T08:06:46.975Z,93.20
2019-05-12T08:09:17.378Z,93.40
2019-05-12T08:11:47.747Z,93.20
2019-05-12T08:14:27.656Z,93.30
2019-05-12T08:16:49.935Z,93.60
2019-05-12T08:19:23.748Z,93.40
2019-05-12T08:21:53.767Z,93.60
2019-05-12T08:24:24.391Z,93.40
2019-05-12T08:27:01.425Z,93.20
2019-05-12T08:29:26.677Z,93.00
2019-05-12T08:31:56.878Z,93.00
2019-05-12T08:34:27.097Z,92.70
2019-05-12T08:36:58.202Z,92.60
2019-05-12T08:39:28.523Z,92.50
2019-05-12T08:41:58.804Z,92.30
2019-05-12T08:44:33.479Z,92.10
2019-05-12T08:47:03.757Z,92.50
2019-05-12T08:49:49.179Z,91.70
2019-05-12T08:52:04.985Z,91.40
2019-05-12T08:54:39.647Z,91.70
2019-05-12T08:57:07.229Z,91.80
2019-05-12T08:59:37.399Z,91.70
2019-05-12T09:02:10.745Z,91.60
2019-05-12T09:04:43.052Z,91.00
2019-05-12T09:07:13.834Z,91.00
2019-05-12T09:09:44.414Z,91.00
2019-05-12T09:12:14.704Z,90.90
2019-05-12T09:14:46.309Z,91.20
2019-05-12T09:17:16.809Z,90.70
2019-05-12T09:19:47.087Z,90.50
2019-05-12T09:22:20.978Z,90.70
2019-05-12T09:24:49.349Z,90.80
2019-05-12T09:27:19.561Z,90.70
2019-05-12T09:29:49.886Z,90.40
2019-05-12T09:32:20.231Z,89.60
2019-05-12T09:34:52.932Z,90.60
2019-05-12T09:37:24.031Z,91.10
2019-05-12T09:39:54.347Z,90.30
2019-05-12T09:42:28.575Z,90.30
2019-05-12T09:45:00.007Z,87.80
2019-05-12T09:47:28.783Z,90.00
2019-05-12T09:49:59.071Z,90.30
2019-05-12T09:52:29.321Z,90.60
2019-05-12T09:54:59.563Z,90.20
2019-05-12T09:57:32.424Z,86.50
2019-05-12T10:00:04.259Z,89.10
2019-05-12T10:02:33.857Z,86.20
2019-05-12T10:05:04.835Z,85.20
2019-05-12T10:07:35.274Z,87.70
2019-05-12T10:10:06.326Z,84.90
2019-05-12T10:12:45.115Z,87.20
2019-05-12T10:15:10.401Z,85.80
2019-05-12T10:17:40.688Z,85.40
2019-05-12T10:20:13.529Z,87.30
2019-05-12T10:22:43.889Z,87.40
2019-05-12T10:25:15.423Z,86.30
2019-05-12T10:27:45.677Z,85.70
2019-05-12T10:30:17.297Z,87.40
2019-05-12T10:32:47.995Z,84.30
2019-05-12T10:35:26.122Z,86.40
2019-05-12T10:37:50.273Z,82.00
2019-05-12T10:40:23.233Z,84.20
2019-05-12T10:42:53.527Z,82.10
2019-05-12T10:45:26.661Z,79.70
2019-05-12T10:47:57.007Z,81.40
2019-05-12T10:50:27.259Z,82.20
2019-05-12T10:52:57.513Z,77.90
2019-05-12T10:55:27.733Z,83.70
2019-05-12T10:58:01.580Z,79.40
2019-05-12T11:00:30.154Z,77.50
2019-05-12T11:03:01.475Z,77.10
2019-05-12T11:05:33.913Z,79.00
2019-05-12T11:08:09.440Z,77.70
2019-05-12T11:10:36.477Z,82.00
2019-05-12T11:13:08.513Z,76.00
2019-05-12T11:15:39.651Z,75.20
2019-05-12T11:18:13.882Z,73.80
2019-05-12T11:20:45.039Z,74.30
2019-05-12T11:23:15.584Z,71.80
2019-05-12T11:25:45.976Z,72.90
2019-05-12T11:28:16.354Z,77.20
2019-05-12T11:30:46.703Z,76.40
2019-05-12T11:33:16.991Z,73.10
2019-05-12T11:35:47.374Z,68.80
2019-05-12T11:38:17.571Z,71.20
2019-05-12T11:40:47.922Z,75.40
2019-05-12T11:43:18.230Z,78.60
2019-05-12T11:45:48.534Z,61.80
2019-05-12T11:48:18.760Z,67.30
2019-05-12T11:50:51.264Z,69.60
2019-05-12T11:53:21.835Z,70.40
2019-05-12T11:55:54.289Z,72.90
2019-05-12T11:58:24.924Z,73.90
2019-05-12T12:00:58.785Z,66.90
2019-05-12T12:03:28.797Z,65.40
2019-05-12T12:05:59.004Z,70.50
2019-05-12T12:08:33.646Z,65.40
2019-05-12T12:11:01.187Z,72.50
2019-05-12T12:13:33.577Z,68.00
2019-05-12T12:16:06.976Z,63.70
2019-05-12T12:18:35.502Z,62.20
2019-05-12T12:21:07.583Z,64.30
2019-05-12T12:23:40.874Z,68.30
2019-05-12T12:26:13.224Z,60.50
2019-05-12T12:28:43.774Z,55.60
2019-05-12T12:31:13.960Z,64.20
2019-05-12T12:33:47.113Z,62.00
2019-05-12T12:36:16.168Z,68.30
2019-05-12T12:38:46.519Z,65.20
2019-05-12T12:41:16.698Z,63.20
2019-05-12T12:43:46.921Z,59.00
2019-05-12T12:46:24.830Z,59.50
2019-05-12T12:48:55.017Z,64.30
2019-05-12T12:51:25.307Z,62.60
2019-05-12T12:53:55.563Z,69.50
2019-05-12T12:56:29.998Z,60.40
2019-05-12T12:59:04.093Z,54.60
2019-05-12T13:01:32.337Z,65.60
2019-05-12T13:04:04.606Z,59.60
2019-05-12T13:06:34.613Z,53.30
2019-05-12T13:09:16.711Z,59.90
2019-05-12T13:11:39.225Z,57.30
2019-05-12T13:14:09.600Z,58.90
2019-05-12T13:16:39.905Z,59.80
2019-05-12T13:19:15.088Z,62.20
2019-05-12T13:21:43.896Z,57.10
2019-05-12T13:24:14.494Z,54.10
2019-05-12T13:26:44.875Z,55.10
2019-05-12T13:29:15.131Z,56.50
2019-05-12T13:31:46.530Z,60.60
2019-05-12T13:34:17.332Z,58.90
2019-05-12T13:36:47.720Z,52.30
2019-05-12T13:39:17.959Z,50.50
2019-05-12T13:41:50.453Z,55.60
2019-05-12T13:44:20.103Z,50.80
2019-05-12T13:46:54.722Z,52.30
2019-05-12T13:49:24.378Z,47.80
2019-05-12T13:51:54.459Z,57.20
2019-05-12T13:54:26.134Z,51.70
2019-05-12T13:56:56.787Z,55.10
2019-05-12T13:59:27.003Z,51.70
2019-05-12T14:01:57.197Z,52.30
2019-05-12T14:04:28.035Z,54.00
2019-05-12T14:06:59.330Z,45.80
2019-05-12T14:09:29.658Z,50.20
2019-05-12T14:11:59.859Z,50.70
2019-05-12T14:14:30.123Z,50.80
2019-05-12T14:17:00.398Z,48.00
2019-05-12T14:19:35.660Z,53.30
2019-05-12T14:22:03.554Z,48.60
2019-05-12T14:24:42.122Z,52.60
2019-05-12T14:27:06.149Z,54.20
2019-05-12T14:29:36.562Z,49.90
2019-05-12T14:32:06.876Z,55.40
2019-05-12T14:34:37.103Z,51.40
2019-05-12T14:37:10.394Z,53.80
2019-05-12T14:39:40.074Z,54.40
2019-05-12T14:42:13.458Z,56.10
2019-05-12T14:44:47.725Z,54.70
2019-05-12T14:47:19.170Z,55.40
2019-05-12T14:49:47.456Z,57.30
2019-05-12T14:52:17.709Z,59.30
2019-05-12T14:54:48.102Z,55.20
2019-05-12T14:57:18.499Z,48.80
2019-05-12T14:59:48.761Z,47.30
2019-05-12T15:02:24.354Z,53.90
2019-05-12T15:04:51.091Z,50.60
2019-05-12T15:07:23.524Z,47.60
2019-05-12T15:10:01.978Z,50.40
2019-05-12T15:12:25.272Z,54.90
2019-05-12T15:14:55.616Z,50.70
2019-05-12T15:17:25.886Z,48.60
2019-05-12T15:20:00.269Z,51.70
2019-05-12T15:22:28.139Z,52.30
2019-05-12T15:24:59.049Z,50.90
2019-05-12T15:27:42.003Z,47.30
2019-05-12T15:30:04.003Z,53.20
2019-05-12T15:32:34.136Z,51.30
2019-05-12T15:35:04.805Z,50.70
2019-05-12T15:37:38.893Z,49.80
2019-05-12T15:40:07.734Z,52.20
2019-05-12T15:42:37.885Z,53.30
2019-05-12T15:45:12.895Z,50.10
2019-05-12T15:47:40.379Z,50.20
2019-05-12T15:50:11.407Z,46.00
2019-05-12T15:52:44.869Z,50.00
2019-05-12T15:55:17.583Z,47.90
2019-05-12T15:57:46.298Z,50.70
2019-05-12T16:00:17.219Z,50.50
2019-05-12T16:02:47.643Z,51.80
2019-05-12T16:05:19.960Z,49.40
2019-05-12T16:07:49.994Z,48.10
2019-05-12T16:10:20.340Z,50.60
2019-05-12T16:12:50.605Z,51.30
2019-05-12T16:15:20.914Z,50.00
2019-05-12T16:17:51.326Z,49.50
2019-05-12T16:20:21.850Z,47.40
2019-05-12T16:22:53.209Z,51.60
2019-05-12T16:25:27.380Z,50.90
2019-05-12T16:27:55.610Z,50.40
2019-05-12T16:30:27.185Z,51.50
2019-05-12T16:32:57.574Z,48.60
2019-05-12T16:35:31.644Z,49.40
2019-05-12T16:37:59.859Z,51.90
2019-05-12T16:40:30.255Z,50.40
2019-05-12T16:43:00.600Z,51.40
2019-05-12T16:45:30.958Z,52.00
2019-05-12T16:48:05.583Z,49.10
2019-05-12T16:50:34.443Z,52.00
2019-05-12T16:53:05.033Z,48.40
2019-05-12T16:55:44.715Z,51.40
2019-05-12T16:58:07.338Z,50.90
2019-05-12T17:00:39.759Z,48.90
2019-05-12T17:03:09.559Z,49.90
2019-05-12T17:05:39.794Z,49.50
2019-05-12T17:08:10.090Z,50.70
2019-05-12T17:10:40.426Z,49.80
2019-05-12T17:13:13.381Z,50.30
2019-05-12T17:15:43.376Z,49.50
2019-05-12T17:18:13.861Z,51.30
2019-05-12T17:20:48.484Z,49.20
2019-05-12T17:23:16.082Z,51.00
2019-05-12T17:25:46.393Z,49.40
2019-05-12T17:28:16.621Z,49.50
2019-05-12T17:30:46.858Z,50.90
2019-05-12T17:33:22.899Z,51.20
2019-05-12T17:35:49.145Z,51.40
2019-05-12T17:38:20.316Z,51.20
2019-05-12T17:40:56.460Z,50.70
2019-05-12T17:43:23.608Z,51.20
2019-05-12T17:45:59.622Z,52.00
2019-05-12T17:48:25.872Z,48.90
2019-05-12T17:50:56.159Z,49.70
2019-05-12T17:53:30.477Z,50.60
2019-05-12T17:55:58.368Z,50.70
2019-05-12T17:58:29.882Z,48.80
2019-05-12T18:01:00.650Z,51.80
2019-05-12T18:03:31.036Z,50.70
2019-05-12T18:06:03.545Z,50.30
2019-05-12T18:08:38.144Z,49.10
2019-05-12T18:11:11.318Z,49.20
2019-05-12T18:13:39.901Z,50.20
2019-05-12T18:16:11.590Z,49.90
2019-05-12T18:18:43.463Z,48.90
2019-05-12T18:21:21.733Z,49.50
2019-05-12T18:23:45.553Z,50.40
2019-05-12T18:26:16.521Z,51.10
2019-05-12T18:28:46.925Z,49.80
2019-05-12T18:31:17.276Z,51.40
2019-05-12T18:33:53.693Z,49.90
2019-05-12T18:36:23.723Z,51.30
2019-05-12T18:38:56.297Z,49.60
2019-05-12T18:41:26.460Z,50.90
2019-05-12T18:43:56.804Z,51.80
2019-05-12T18:46:27.269Z,51.40
2019-05-12T18:49:03.717Z,51.50
2019-05-12T18:51:29.503Z,51.20
2019-05-12T18:54:03.682Z,51.90
2019-05-12T18:56:33.602Z,51.40
2019-05-12T18:59:11.600Z,52.30
2019-05-12T19:01:36.332Z,52.10
2019-05-12T19:04:06.704Z,51.20
2019-05-12T19:06:36.911Z,51.50
2019-05-12T19:09:08.597Z,51.60
2019-05-12T19:11:41.977Z,52.50
2019-05-12T19:14:13.318Z,52.90
2019-05-12T19:16:43.672Z,52.70
2019-05-12T19:19:16.780Z,52.30
2019-05-12T19:21:46.862Z,52.20
2019-05-12T19:24:19.989Z,52.70
2019-05-12T19:26:49.777Z,52.70
2019-05-12T19:29:20.024Z,52.80
2019-05-12T19:31:52.566Z,53.00
2019-05-12T19:34:25.804Z,53.20
2019-05-12T19:36:54.311Z,53.30
2019-05-12T19:39:25.439Z,53.20
2019-05-12T19:41:55.965Z,53.50
2019-05-12T19:44:30.519Z,53.20
2019-05-12T19:46:58.169Z,53.20
2019-05-12T19:49:42.497Z,53.50
2019-05-12T19:52:00.445Z,53.10
2019-05-12T19:54:33.765Z,52.90
2019-05-12T19:57:02.617Z,53.50
2019-05-12T19:59:34.114Z,53.40
2019-05-12T20:02:04.963Z,53.50
2019-05-12T20:04:42.134Z,53.70
2019-05-12T20:07:07.349Z,53.80
2019-05-12T20:09:37.675Z,53.70
2019-05-12T20:12:15.745Z,53.60
2019-05-12T20:14:39.820Z,53.40
2019-05-12T20:17:10.082Z,53.60
2019-05-12T20:19:40.411Z,53.90
2019-05-12T20:22:10.913Z,53.90
2019-05-12T20:24:41.112Z,53.90
2019-05-12T20:27:17.079Z,54.00
2019-05-12T20:29:43.520Z,53.70
2019-05-12T20:32:14.023Z,54.10
2019-05-12T20:34:51.629Z,54.30
2019-05-12T20:37:16.887Z,54.30
2019-05-12T20:39:51.254Z,54.10
2019-05-12T20:42:23.526Z,54.10
2019-05-12T20:45:00.340Z,54.20
2019-05-12T20:47:25.337Z,54.90
2019-05-12T20:49:55.667Z,54.30
2019-05-12T20:52:25.981Z,54.50
2019-05-12T20:54:59.713Z,54.70
2019-05-12T20:57:28.070Z,54.70
2019-05-12T21:00:03.682Z,54.60
2019-05-12T21:02:30.242Z,54.70
2019-05-12T21:05:01.509Z,54.60
2019-05-12T21:07:33.858Z,55.20
2019-05-12T21:10:05.004Z,54.70
2019-05-12T21:12:40.202Z,54.80
2019-05-12T21:15:16.346Z,54.90
2019-05-12T21:17:43.317Z,55.00
2019-05-12T21:20:16.354Z,54.90
2019-05-12T21:22:43.692Z,55.10
2019-05-12T21:25:14.286Z,55.00
2019-05-12T21:27:47.639Z,55.20
2019-05-12T21:30:16.703Z,55.50
2019-05-12T21:32:55.435Z,55.20
2019-05-12T21:35:22.498Z,55.40
2019-05-12T21:37:51.009Z,55.40
2019-05-12T21:40:24.212Z,55.30
2019-05-12T21:42:53.719Z,55.60
2019-05-12T21:45:26.532Z,55.80
2019-05-12T21:47:56.726Z,56.00
2019-05-12T21:50:32.633Z,55.70
2019-05-12T21:53:00.060Z,55.70
2019-05-12T21:55:30.420Z,55.60
2019-05-12T21:58:01.587Z,56.20
2019-05-12T22:00:37.730Z,55.60
2019-05-12T22:03:12.341Z,55.50
2019-05-12T22:05:51.971Z,55.50
2019-05-12T22:08:20.606Z,55.60
2019-05-12T22:10:45.482Z,55.50
2019-05-12T22:13:18.136Z,55.40
2019-05-12T22:15:51.406Z,55.30
2019-05-12T22:18:19.694Z,55.40
2019-05-12T22:20:52.380Z,55.50
2019-05-12T22:23:24.567Z,55.50
2019-05-12T22:25:55.585Z,55.50
2019-05-12T22:28:25.894Z,55.50
2019-05-12T22:30:56.064Z,55.90
2019-05-12T22:33:26.328Z,55.70
2019-05-12T22:36:05.541Z,55.70
2019-05-12T22:38:28.506Z,55.80
2019-05-12T22:40:59.726Z,55.80
2019-05-12T22:43:31.584Z,55.70
2019-05-12T22:46:04.382Z,55.80
2019-05-12T22:48:36.953Z,56.00
2019-05-12T22:51:17.464Z,55.70
2019-05-12T22:53:38.402Z,55.80
2019-05-12T22:56:13.421Z,55.90
2019-05-12T22:58:40.704Z,56.00
2019-05-12T23:01:11.076Z,55.80
2019-05-12T23:03:43.164Z,55.80
2019-05-12T23:06:23.794Z,55.90
2019-05-12T23:08:49.207Z,56.40
2019-05-12T23:11:17.328Z,55.80
2019-05-12T23:13:47.541Z,56.90
2019-05-12T23:16:19.175Z,56.00
2019-05-12T23:18:49.858Z,56.70
2019-05-12T23:21:20.038Z,56.10
2019-05-12T23:23:57.414Z,56.10
2019-05-12T23:26:24.478Z,56.00
2019-05-12T23:28:55.034Z,56.20
2019-05-12T23:31:30.011Z,56.70
2019-05-12T23:33:57.250Z,56.50
2019-05-12T23:36:35.827Z,56.60
2019-05-12T23:39:00.786Z,57.20
2019-05-12T23:41:31.475Z,57.00
2019-05-12T23:44:04.130Z,56.50
2019-05-12T23:46:34.324Z,57.30
2019-05-12T23:49:04.787Z,56.60
2019-05-12T23:51:35.056Z,57.10
2019-05-12T23:54:05.360Z,58.30
2019-05-12T23:56:35.525Z,58.20
2019-05-12T23:59:05.777Z,56.60
